sensor_id;sensor_type;location;lat;lon;timestamp;temperature;humidity
54796;DHT22;40693;43.884;20.340;2024-03-29T00:00:46;410.10;1868.80
54796;DHT22;40693;43.884;20.340;2024-03-29T00:03:12;410.10;1868.80
54796;DHT22;40693;43.884;20.340;2024-03-29T00:05:38;410.10;1868.80
54796;DHT22;40693;43.884;20.340;2024-03-29T00:08:04;410.10;1868.80
54796;DHT22;40693;43.884;20.340;2024-03-29T00:10:30;410.10;1868.80
54796;DHT22;40693;43.884;20.340;2024-03-29T00:12:56;410.00;1894.40
54796;DHT22;40693;43.884;20.340;2024-03-29T00:15:22;409.80;1894.40
54796;DHT22;40693;43.884;20.340;2024-03-29T00:17:47;409.90;1894.40
54796;DHT22;40693;43.884;20.340;2024-03-29T00:20:13;409.90;1894.40
54796;DHT22;40693;43.884;20.340;2024-03-29T00:22:39;409.90;1920.00
54796;DHT22;40693;43.884;20.340;2024-03-29T00:25:05;409.80;1920.00
54796;DHT22;40693;43.884;20.340;2024-03-29T00:27:31;409.70;1920.00
54796;DHT22;40693;43.884;20.340;2024-03-29T00:29:58;384.90;1920.00
54796;DHT22;40693;43.884;20.340;2024-03-29T00:32:24;384.90;1920.00
54796;DHT22;40693;43.884;20.340;2024-03-29T00:34:51;384.90;1920.00
54796;DHT22;40693;43.884;20.340;2024-03-29T00:37:18;384.90;1920.00
54796;DHT22;40693;43.884;20.340;2024-03-29T00:39:44;384.90;1945.60
54796;DHT22;40693;43.884;20.340;2024-03-29T00:42:10;384.80;1945.60
54796;DHT22;40693;43.884;20.340;2024-03-29T00:44:38;384.80;1945.60
54796;DHT22;40693;43.884;20.340;2024-03-29T00:47:05;384.80;1945.60
54796;DHT22;40693;43.884;20.340;2024-03-29T00:49:31;384.80;1945.60
54796;DHT22;40693;43.884;20.340;2024-03-29T00:51:57;384.80;1945.60
54796;DHT22;40693;43.884;20.340;2024-03-29T00:54:23;384.50;1971.20
54796;DHT22;40693;43.884;20.340;2024-03-29T00:56:49;384.40;1996.80
54796;DHT22;40693;43.884;20.340;2024-03-29T00:59:15;384.30;1996.80
54796;DHT22;40693;43.884;20.340;2024-03-29T01:01:42;384.30;1996.80
54796;DHT22;40693;43.884;20.340;2024-03-29T01:04:08;384.30;1996.80
54796;DHT22;40693;43.884;20.340;2024-03-29T01:06:33;384.30;1996.80
54796;DHT22;40693;43.884;20.340;2024-03-29T01:09:02;384.30;1996.80
54796;DHT22;40693;43.884;20.340;2024-03-29T01:11:29;384.30;2022.40
54796;DHT22;40693;43.884;20.340;2024-03-29T01:13:56;384.30;2022.40
54796;DHT22;40693;43.884;20.340;2024-03-29T01:16:22;384.10;2048.00
54796;DHT22;40693;43.884;20.340;2024-03-29T01:18:47;384.00;2048.00
54796;DHT22;40693;43.884;20.340;2024-03-29T01:21:13;384.00;2048.00
54796;DHT22;40693;43.884;20.340;2024-03-29T01:23:39;384.00;2048.00
54796;DHT22;40693;43.884;20.340;2024-03-29T01:26:06;384.00;2048.00
54796;DHT22;40693;43.884;20.340;2024-03-29T01:28:33;359.00;2073.60
54796;DHT22;40693;43.884;20.340;2024-03-29T01:30:59;359.00;2099.20
54796;DHT22;40693;43.884;20.340;2024-03-29T01:33:25;358.90;2124.80
54796;DHT22;40693;43.884;20.340;2024-03-29T01:35:51;358.80;2124.80
54796;DHT22;40693;43.884;20.340;2024-03-29T01:38:17;358.90;2099.20
54796;DHT22;40693;43.884;20.340;2024-03-29T01:40:43;358.90;2099.20
54796;DHT22;40693;43.884;20.340;2024-03-29T01:43:08;359.00;2099.20
54796;DHT22;40693;43.884;20.340;2024-03-29T01:45:38;359.00;2099.20
54796;DHT22;40693;43.884;20.340;2024-03-29T01:48:08;359.00;2099.20
54796;DHT22;40693;43.884;20.340;2024-03-29T01:50:35;359.00;2124.80
54796;DHT22;40693;43.884;20.340;2024-03-29T01:53:02;359.10;2124.80
54796;DHT22;40693;43.884;20.340;2024-03-29T01:55:29;359.00;2124.80
54796;DHT22;40693;43.884;20.340;2024-03-29T01:57:56;359.10;2124.80
54796;DHT22;40693;43.884;20.340;2024-03-29T02:00:22;359.10;2124.80
54796;DHT22;40693;43.884;20.340;2024-03-29T02:02:49;359.10;2124.80
54796;DHT22;40693;43.884;20.340;2024-03-29T02:05:14;359.10;2124.80
54796;DHT22;40693;43.884;20.340;2024-03-29T02:07:41;359.10;2124.80
54796;DHT22;40693;43.884;20.340;2024-03-29T02:10:10;359.00;2150.40
54796;DHT22;40693;43.884;20.340;2024-03-29T02:12:38;358.90;2150.40
54796;DHT22;40693;43.884;20.340;2024-03-29T02:15:05;358.90;2150.40
54796;DHT22;40693;43.884;20.340;2024-03-29T02:17:32;358.90;2150.40
54796;DHT22;40693;43.884;20.340;2024-03-29T02:19:58;358.90;2150.40
54796;DHT22;40693;43.884;20.340;2024-03-29T02:22:25;358.80;2176.00
54796;DHT22;40693;43.884;20.340;2024-03-29T02:24:52;358.80;2150.40
54796;DHT22;40693;43.884;20.340;2024-03-29T02:27:19;358.80;2176.00
54796;DHT22;40693;43.884;20.340;2024-03-29T02:29:45;358.70;2176.00
54796;DHT22;40693;43.884;20.340;2024-03-29T02:32:11;358.70;2176.00
54796;DHT22;40693;43.884;20.340;2024-03-29T02:34:37;358.60;2176.00
54796;DHT22;40693;43.884;20.340;2024-03-29T02:37:04;358.50;2176.00
54796;DHT22;40693;43.884;20.340;2024-03-29T02:39:30;358.50;2201.60
54796;DHT22;40693;43.884;20.340;2024-03-29T02:41:56;358.50;2201.60
54796;DHT22;40693;43.884;20.340;2024-03-29T02:44:22;358.40;2227.20
54796;DHT22;40693;43.884;20.340;2024-03-29T02:46:47;333.70;2252.80
54796;DHT22;40693;43.884;20.340;2024-03-29T02:49:13;333.60;2278.40
54796;DHT22;40693;43.884;20.340;2024-03-29T02:51:39;333.50;2304.00
54796;DHT22;40693;43.884;20.340;2024-03-29T02:54:05;333.50;2329.60
54796;DHT22;40693;43.884;20.340;2024-03-29T02:56:31;333.50;2329.60
54796;DHT22;40693;43.884;20.340;2024-03-29T02:58:57;333.50;2329.60
54796;DHT22;40693;43.884;20.340;2024-03-29T03:01:22;333.40;2329.60
54796;DHT22;40693;43.884;20.340;2024-03-29T03:03:48;333.50;2329.60
54796;DHT22;40693;43.884;20.340;2024-03-29T03:06:14;333.50;2329.60
54796;DHT22;40693;43.884;20.340;2024-03-29T03:08:40;333.50;2329.60
54796;DHT22;40693;43.884;20.340;2024-03-29T03:11:24;333.50;2329.60
54796;DHT22;40693;43.884;20.340;2024-03-29T03:13:50;333.40;2329.60
54796;DHT22;40693;43.884;20.340;2024-03-29T03:16:16;333.30;2329.60
54796;DHT22;40693;43.884;20.340;2024-03-29T03:18:42;333.30;2329.60
54796;DHT22;40693;43.884;20.340;2024-03-29T03:21:07;333.20;2329.60
54796;DHT22;40693;43.884;20.340;2024-03-29T03:23:33;333.30;2329.60
54796;DHT22;40693;43.884;20.340;2024-03-29T03:26:00;333.30;2329.60
54796;DHT22;40693;43.884;20.340;2024-03-29T03:28:27;333.20;2329.60
54796;DHT22;40693;43.884;20.340;2024-03-29T03:30:53;333.10;2329.60
54796;DHT22;40693;43.884;20.340;2024-03-29T03:33:20;333.10;2329.60
54796;DHT22;40693;43.884;20.340;2024-03-29T03:35:46;333.00;2329.60
54796;DHT22;40693;43.884;20.340;2024-03-29T03:38:12;333.00;2329.60
54796;DHT22;40693;43.884;20.340;2024-03-29T03:40:39;333.00;2329.60
54796;DHT22;40693;43.884;20.340;2024-03-29T03:43:06;332.90;2329.60
54796;DHT22;40693;43.884;20.340;2024-03-29T03:45:39;333.00;2329.60
54796;DHT22;40693;43.884;20.340;2024-03-29T03:48:06;333.00;2329.60
54796;DHT22;40693;43.884;20.340;2024-03-29T03:50:33;333.10;2329.60
54796;DHT22;40693;43.884;20.340;2024-03-29T03:52:59;333.10;2329.60
54796;DHT22;40693;43.884;20.340;2024-03-29T03:55:25;333.10;2329.60
54796;DHT22;40693;43.884;20.340;2024-03-29T03:57:50;333.10;2329.60
54796;DHT22;40693;43.884;20.340;2024-03-29T04:00:18;333.00;2329.60
54796;DHT22;40693;43.884;20.340;2024-03-29T04:02:52;333.30;2329.60
54796;DHT22;40693;43.884;20.340;2024-03-29T04:05:21;332.90;2329.60
54796;DHT22;40693;43.884;20.340;2024-03-29T04:07:47;333.00;2329.60
54796;DHT22;40693;43.884;20.340;2024-03-29T04:10:13;333.00;2329.60
54796;DHT22;40693;43.884;20.340;2024-03-29T04:12:39;333.00;2329.60
54796;DHT22;40693;43.884;20.340;2024-03-29T04:15:05;332.90;2329.60
54796;DHT22;40693;43.884;20.340;2024-03-29T04:17:31;308.10;2304.00
54796;DHT22;40693;43.884;20.340;2024-03-29T04:19:58;308.00;2304.00
54796;DHT22;40693;43.884;20.340;2024-03-29T04:22:25;308.10;2304.00
54796;DHT22;40693;43.884;20.340;2024-03-29T04:24:51;308.10;2304.00
54796;DHT22;40693;43.884;20.340;2024-03-29T04:27:17;308.10;2304.00
54796;DHT22;40693;43.884;20.340;2024-03-29T04:29:43;332.90;2329.60
54796;DHT22;40693;43.884;20.340;2024-03-29T04:32:09;332.90;2329.60
54796;DHT22;40693;43.884;20.340;2024-03-29T04:34:34;333.00;2329.60
54796;DHT22;40693;43.884;20.340;2024-03-29T04:37:00;333.00;2329.60
54796;DHT22;40693;43.884;20.340;2024-03-29T04:39:27;333.10;2329.60
54796;DHT22;40693;43.884;20.340;2024-03-29T04:41:53;333.10;2329.60
54796;DHT22;40693;43.884;20.340;2024-03-29T04:44:24;333.10;2329.60
54796;DHT22;40693;43.884;20.340;2024-03-29T04:46:51;333.20;2329.60
54796;DHT22;40693;43.884;20.340;2024-03-29T04:49:19;333.20;2329.60
54796;DHT22;40693;43.884;20.340;2024-03-29T04:51:51;333.10;2329.60
54796;DHT22;40693;43.884;20.340;2024-03-29T04:54:17;332.90;2329.60
54796;DHT22;40693;43.884;20.340;2024-03-29T04:56:43;332.90;2329.60
54796;DHT22;40693;43.884;20.340;2024-03-29T04:59:09;332.90;2329.60
54796;DHT22;40693;43.884;20.340;2024-03-29T05:01:36;332.90;2329.60
54796;DHT22;40693;43.884;20.340;2024-03-29T05:04:02;332.90;2329.60
54796;DHT22;40693;43.884;20.340;2024-03-29T05:06:29;333.00;2329.60
54796;DHT22;40693;43.884;20.340;2024-03-29T05:08:55;333.10;2329.60
54796;DHT22;40693;43.884;20.340;2024-03-29T05:11:21;333.20;2329.60
54796;DHT22;40693;43.884;20.340;2024-03-29T05:13:47;333.10;2329.60
54796;DHT22;40693;43.884;20.340;2024-03-29T05:16:13;333.20;2329.60
54796;DHT22;40693;43.884;20.340;2024-03-29T05:18:39;333.20;2329.60
54796;DHT22;40693;43.884;20.340;2024-03-29T05:21:05;333.30;2329.60
54796;DHT22;40693;43.884;20.340;2024-03-29T05:23:31;333.20;2329.60
54796;DHT22;40693;43.884;20.340;2024-03-29T05:25:57;333.20;2329.60
54796;DHT22;40693;43.884;20.340;2024-03-29T05:28:23;333.30;2329.60
54796;DHT22;40693;43.884;20.340;2024-03-29T05:30:48;333.30;2329.60
54796;DHT22;40693;43.884;20.340;2024-03-29T05:33:14;333.30;2329.60
54796;DHT22;40693;43.884;20.340;2024-03-29T05:35:41;333.40;2329.60
54796;DHT22;40693;43.884;20.340;2024-03-29T05:38:07;333.40;2329.60
54796;DHT22;40693;43.884;20.340;2024-03-29T05:40:32;333.30;2329.60
54796;DHT22;40693;43.884;20.340;2024-03-29T05:42:58;333.40;2329.60
54796;DHT22;40693;43.884;20.340;2024-03-29T05:45:29;333.50;2329.60
54796;DHT22;40693;43.884;20.340;2024-03-29T05:47:56;333.50;2329.60
54796;DHT22;40693;43.884;20.340;2024-03-29T05:50:23;333.50;2329.60
54796;DHT22;40693;43.884;20.340;2024-03-29T05:52:51;333.50;2329.60
54796;DHT22;40693;43.884;20.340;2024-03-29T05:55:17;333.50;2329.60
54796;DHT22;40693;43.884;20.340;2024-03-29T05:57:44;333.60;2329.60
54796;DHT22;40693;43.884;20.340;2024-03-29T06:00:14;333.60;2329.60
54796;DHT22;40693;43.884;20.340;2024-03-29T06:02:40;333.60;2329.60
54796;DHT22;40693;43.884;20.340;2024-03-29T06:05:07;333.70;2329.60
54796;DHT22;40693;43.884;20.340;2024-03-29T06:07:34;333.70;2329.60
54796;DHT22;40693;43.884;20.340;2024-03-29T06:10:00;358.50;2329.60
54796;DHT22;40693;43.884;20.340;2024-03-29T06:12:30;358.60;2329.60
54796;DHT22;40693;43.884;20.340;2024-03-29T06:14:56;358.70;2329.60
54796;DHT22;40693;43.884;20.340;2024-03-29T06:17:40;358.80;2329.60
54796;DHT22;40693;43.884;20.340;2024-03-29T06:20:06;358.90;2329.60
54796;DHT22;40693;43.884;20.340;2024-03-29T06:22:33;359.10;2329.60
54796;DHT22;40693;43.884;20.340;2024-03-29T06:24:59;359.10;2329.60
54796;DHT22;40693;43.884;20.340;2024-03-29T06:27:32;359.10;2329.60
54796;DHT22;40693;43.884;20.340;2024-03-29T06:29:59;359.20;2329.60
54796;DHT22;40693;43.884;20.340;2024-03-29T06:32:25;358.80;2329.60
54796;DHT22;40693;43.884;20.340;2024-03-29T06:34:51;384.40;2329.60
54796;DHT22;40693;43.884;20.340;2024-03-29T06:37:17;384.10;2329.60
54796;DHT22;40693;43.884;20.340;2024-03-29T06:39:43;384.10;2329.60
54796;DHT22;40693;43.884;20.340;2024-03-29T06:42:09;384.20;2329.60
54796;DHT22;40693;43.884;20.340;2024-03-29T06:44:35;384.20;2329.60
54796;DHT22;40693;43.884;20.340;2024-03-29T06:47:11;384.40;2329.60
54796;DHT22;40693;43.884;20.340;2024-03-29T06:49:38;384.40;2329.60
54796;DHT22;40693;43.884;20.340;2024-03-29T06:52:04;384.50;2329.60
54796;DHT22;40693;43.884;20.340;2024-03-29T06:54:30;384.60;2329.60
54796;DHT22;40693;43.884;20.340;2024-03-29T06:56:58;384.70;2329.60
54796;DHT22;40693;43.884;20.340;2024-03-29T06:59:26;384.90;2329.60
54796;DHT22;40693;43.884;20.340;2024-03-29T07:01:53;384.90;2329.60
54796;DHT22;40693;43.884;20.340;2024-03-29T07:04:21;409.60;2355.20
54796;DHT22;40693;43.884;20.340;2024-03-29T07:06:47;409.60;2355.20
54796;DHT22;40693;43.884;20.340;2024-03-29T07:09:22;409.90;2355.20
54796;DHT22;40693;43.884;20.340;2024-03-29T07:11:50;410.10;2329.60
54796;DHT22;40693;43.884;20.340;2024-03-29T07:14:16;410.20;2355.20
54796;DHT22;40693;43.884;20.340;2024-03-29T07:16:43;410.40;2355.20
54796;DHT22;40693;43.884;20.340;2024-03-29T07:19:10;410.50;2355.20
54796;DHT22;40693;43.884;20.340;2024-03-29T07:21:39;435.30;2329.60
54796;DHT22;40693;43.884;20.340;2024-03-29T07:24:05;435.50;2278.40
54796;DHT22;40693;43.884;20.340;2024-03-29T07:26:32;435.60;2252.80
54796;DHT22;40693;43.884;20.340;2024-03-29T07:28:58;435.80;2278.40
54796;DHT22;40693;43.884;20.340;2024-03-29T07:31:23;435.80;2252.80
54796;DHT22;40693;43.884;20.340;2024-03-29T07:33:49;436.00;2278.40
54796;DHT22;40693;43.884;20.340;2024-03-29T07:36:15;436.10;2201.60
54796;DHT22;40693;43.884;20.340;2024-03-29T07:38:42;460.90;2176.00
54796;DHT22;40693;43.884;20.340;2024-03-29T07:41:09;461.00;2176.00
54796;DHT22;40693;43.884;20.340;2024-03-29T07:43:59;461.20;2201.60
54796;DHT22;40693;43.884;20.340;2024-03-29T07:46:32;461.40;2201.60
54796;DHT22;40693;43.884;20.340;2024-03-29T07:48:57;461.60;2150.40
54796;DHT22;40693;43.884;20.340;2024-03-29T07:51:23;461.70;2124.80
54796;DHT22;40693;43.884;20.340;2024-03-29T07:53:49;486.50;2073.60
54796;DHT22;40693;43.884;20.340;2024-03-29T07:56:15;486.70;2073.60
54796;DHT22;40693;43.884;20.340;2024-03-29T07:58:42;486.90;2073.60
54796;DHT22;40693;43.884;20.340;2024-03-29T08:01:08;487.00;2073.60
54796;DHT22;40693;43.884;20.340;2024-03-29T08:03:33;512.10;1996.80
54796;DHT22;40693;43.884;20.340;2024-03-29T08:06:03;512.10;2022.40
54796;DHT22;40693;43.884;20.340;2024-03-29T08:08:34;512.10;1894.40
54796;DHT22;40693;43.884;20.340;2024-03-29T08:11:00;512.20;1920.00
54796;DHT22;40693;43.884;20.340;2024-03-29T08:13:26;512.40;1817.60
54796;DHT22;40693;43.884;20.340;2024-03-29T08:15:59;512.60;1817.60
54796;DHT22;40693;43.884;20.340;2024-03-29T08:18:26;512.80;1792.00
54796;DHT22;40693;43.884;20.340;2024-03-29T08:20:53;537.60;1766.40
54796;DHT22;40693;43.884;20.340;2024-03-29T08:23:22;537.80;1740.80
54796;DHT22;40693;43.884;20.340;2024-03-29T08:25:48;538.00;1740.80
54796;DHT22;40693;43.884;20.340;2024-03-29T08:28:19;538.10;1715.20
54796;DHT22;40693;43.884;20.340;2024-03-29T08:30:45;538.40;1689.60
54796;DHT22;40693;43.884;20.340;2024-03-29T08:33:11;538.50;1766.40
54796;DHT22;40693;43.884;20.340;2024-03-29T08:35:37;563.30;1766.40
54796;DHT22;40693;43.884;20.340;2024-03-29T08:38:08;563.50;1664.00
54796;DHT22;40693;43.884;20.340;2024-03-29T08:40:34;563.70;1689.60
54796;DHT22;40693;43.884;20.340;2024-03-29T08:43:03;563.80;1689.60
54796;DHT22;40693;43.884;20.340;2024-03-29T08:45:30;563.90;1612.80
54796;DHT22;40693;43.884;20.340;2024-03-29T08:47:55;563.90;1612.80
54796;DHT22;40693;43.884;20.340;2024-03-29T08:50:21;563.90;1612.80
54796;DHT22;40693;43.884;20.340;2024-03-29T08:52:47;563.90;1587.20
54796;DHT22;40693;43.884;20.340;2024-03-29T08:55:13;564.00;1587.20
54796;DHT22;40693;43.884;20.340;2024-03-29T08:57:39;564.10;1587.20
54796;DHT22;40693;43.884;20.340;2024-03-29T09:00:05;588.80;1561.60
54796;DHT22;40693;43.884;20.340;2024-03-29T09:02:32;589.00;1561.60
54796;DHT22;40693;43.884;20.340;2024-03-29T09:04:57;589.00;1561.60
54796;DHT22;40693;43.884;20.340;2024-03-29T09:07:24;589.10;1536.00
54796;DHT22;40693;43.884;20.340;2024-03-29T09:09:50;589.20;1561.60
54796;DHT22;40693;43.884;20.340;2024-03-29T09:12:16;589.20;1510.40
54796;DHT22;40693;43.884;20.340;2024-03-29T09:14:47;589.20;1510.40
54796;DHT22;40693;43.884;20.340;2024-03-29T09:17:13;589.20;1510.40
54796;DHT22;40693;43.884;20.340;2024-03-29T09:19:39;589.30;1510.40
54796;DHT22;40693;43.884;20.340;2024-03-29T09:22:05;589.50;1510.40
54796;DHT22;40693;43.884;20.340;2024-03-29T09:24:31;589.60;1484.80
54796;DHT22;40693;43.884;20.340;2024-03-29T09:26:57;589.70;1510.40
54796;DHT22;40693;43.884;20.340;2024-03-29T09:29:23;614.40;1510.40
54796;DHT22;40693;43.884;20.340;2024-03-29T09:31:49;614.60;1484.80
54796;DHT22;40693;43.884;20.340;2024-03-29T09:34:15;614.80;1510.40
54796;DHT22;40693;43.884;20.340;2024-03-29T09:36:40;614.80;1459.20
54796;DHT22;40693;43.884;20.340;2024-03-29T09:39:07;614.80;1484.80
54796;DHT22;40693;43.884;20.340;2024-03-29T09:41:34;614.90;1459.20
54796;DHT22;40693;43.884;20.340;2024-03-29T09:44:03;614.90;1408.00
54796;DHT22;40693;43.884;20.340;2024-03-29T09:46:33;614.80;1382.40
54796;DHT22;40693;43.884;20.340;2024-03-29T09:48:59;614.80;1433.60
54796;DHT22;40693;43.884;20.340;2024-03-29T09:51:27;614.90;1408.00
54796;DHT22;40693;43.884;20.340;2024-03-29T09:53:55;614.90;1408.00
54796;DHT22;40693;43.884;20.340;2024-03-29T09:56:24;614.90;1408.00
54796;DHT22;40693;43.884;20.340;2024-03-29T09:58:50;615.10;1408.00
54796;DHT22;40693;43.884;20.340;2024-03-29T10:01:16;615.20;1356.80
54796;DHT22;40693;43.884;20.340;2024-03-29T10:03:49;615.20;1382.40
54796;DHT22;40693;43.884;20.340;2024-03-29T10:06:16;615.30;1382.40
54796;DHT22;40693;43.884;20.340;2024-03-29T10:08:44;640.10;1459.20
54796;DHT22;40693;43.884;20.340;2024-03-29T10:11:10;640.40;1331.20
54796;DHT22;40693;43.884;20.340;2024-03-29T10:13:36;640.50;1356.80
54796;DHT22;40693;43.884;20.340;2024-03-29T10:16:04;640.60;1280.00
54796;DHT22;40693;43.884;20.340;2024-03-29T10:18:30;640.40;1254.40
54796;DHT22;40693;43.884;20.340;2024-03-29T10:21:02;640.30;1280.00
54796;DHT22;40693;43.884;20.340;2024-03-29T10:23:29;640.50;1331.20
54796;DHT22;40693;43.884;20.340;2024-03-29T10:25:55;640.60;1280.00
54796;DHT22;40693;43.884;20.340;2024-03-29T10:28:22;640.70;1305.60
54796;DHT22;40693;43.884;20.340;2024-03-29T10:30:48;640.90;1305.60
54796;DHT22;40693;43.884;20.340;2024-03-29T10:33:16;665.60;1305.60
54796;DHT22;40693;43.884;20.340;2024-03-29T10:35:42;665.60;1305.60
54796;DHT22;40693;43.884;20.340;2024-03-29T10:38:11;665.70;1280.00
54796;DHT22;40693;43.884;20.340;2024-03-29T10:40:41;665.90;1305.60
54796;DHT22;40693;43.884;20.340;2024-03-29T10:43:11;666.10;1280.00
54796;DHT22;40693;43.884;20.340;2024-03-29T10:45:45;666.00;1280.00
54796;DHT22;40693;43.884;20.340;2024-03-29T10:48:15;666.00;1254.40
54796;DHT22;40693;43.884;20.340;2024-03-29T10:50:42;666.00;1228.80
54796;DHT22;40693;43.884;20.340;2024-03-29T10:53:12;665.90;1254.40
54796;DHT22;40693;43.884;20.340;2024-03-29T10:55:42;666.10;1254.40
54796;DHT22;40693;43.884;20.340;2024-03-29T10:58:10;666.20;1228.80
54796;DHT22;40693;43.884;20.340;2024-03-29T11:00:47;666.40;1254.40
54796;DHT22;40693;43.884;20.340;2024-03-29T11:03:23;666.50;1228.80
54796;DHT22;40693;43.884;20.340;2024-03-29T11:05:55;666.50;1203.20
54796;DHT22;40693;43.884;20.340;2024-03-29T11:08:27;691.40;1228.80
54796;DHT22;40693;43.884;20.340;2024-03-29T11:10:58;691.70;1280.00
54796;DHT22;40693;43.884;20.340;2024-03-29T11:15:57;691.80;1177.60
54796;DHT22;40693;43.884;20.340;2024-03-29T11:18:25;691.90;1203.20
54796;DHT22;40693;43.884;20.340;2024-03-29T11:20:52;716.90;1228.80
54796;DHT22;40693;43.884;20.340;2024-03-29T11:23:20;717.10;1228.80
54796;DHT22;40693;43.884;20.340;2024-03-29T11:25:49;717.30;1254.40
54796;DHT22;40693;43.884;20.340;2024-03-29T11:28:34;717.40;1177.60
54796;DHT22;40693;43.884;20.340;2024-03-29T11:31:01;717.60;1177.60
54796;DHT22;40693;43.884;20.340;2024-03-29T11:33:33;717.60;1203.20
54796;DHT22;40693;43.884;20.340;2024-03-29T11:36:32;717.70;1152.00
54796;DHT22;40693;43.884;20.340;2024-03-29T11:38:53;717.50;1126.40
54796;DHT22;40693;43.884;20.340;2024-03-29T11:41:22;717.30;1152.00
54796;DHT22;40693;43.884;20.340;2024-03-29T11:43:55;717.30;1177.60
54796;DHT22;40693;43.884;20.340;2024-03-29T11:46:21;717.40;1203.20
54796;DHT22;40693;43.884;20.340;2024-03-29T11:48:48;717.60;1177.60
54796;DHT22;40693;43.884;20.340;2024-03-29T11:51:21;717.70;1228.80
54796;DHT22;40693;43.884;20.340;2024-03-29T11:53:49;742.50;1280.00
54796;DHT22;40693;43.884;20.340;2024-03-29T11:56:17;742.60;1254.40
54796;DHT22;40693;43.884;20.340;2024-03-29T11:58:43;742.70;1177.60
54796;DHT22;40693;43.884;20.340;2024-03-29T12:01:09;742.80;1254.40
54796;DHT22;40693;43.884;20.340;2024-03-29T12:03:38;742.90;1203.20
54796;DHT22;40693;43.884;20.340;2024-03-29T12:06:05;743.00;1203.20
54796;DHT22;40693;43.884;20.340;2024-03-29T12:08:32;743.30;1203.20
54796;DHT22;40693;43.884;20.340;2024-03-29T12:10:58;768.00;1152.00
54796;DHT22;40693;43.884;20.340;2024-03-29T12:13:24;743.00;1126.40
54796;DHT22;40693;43.884;20.340;2024-03-29T12:15:50;742.80;1152.00
54796;DHT22;40693;43.884;20.340;2024-03-29T12:18:15;742.70;1152.00
54796;DHT22;40693;43.884;20.340;2024-03-29T12:20:41;742.80;1203.20
54796;DHT22;40693;43.884;20.340;2024-03-29T12:23:08;742.80;1203.20
54796;DHT22;40693;43.884;20.340;2024-03-29T12:25:35;742.80;1177.60
54796;DHT22;40693;43.884;20.340;2024-03-29T12:28:01;742.80;1203.20
54796;DHT22;40693;43.884;20.340;2024-03-29T12:30:28;742.80;1177.60
54796;DHT22;40693;43.884;20.340;2024-03-29T12:35:50;743.00;1177.60
54796;DHT22;40693;43.884;20.340;2024-03-29T12:38:17;742.90;1177.60
54796;DHT22;40693;43.884;20.340;2024-03-29T12:40:43;742.50;1152.00
54796;DHT22;40693;43.884;20.340;2024-03-29T12:43:10;717.70;1152.00
54796;DHT22;40693;43.884;20.340;2024-03-29T12:45:39;717.70;1177.60
54796;DHT22;40693;43.884;20.340;2024-03-29T12:50:37;742.50;1203.20
54796;DHT22;40693;43.884;20.340;2024-03-29T12:53:08;742.90;1203.20
54796;DHT22;40693;43.884;20.340;2024-03-29T12:55:33;742.90;1152.00
54796;DHT22;40693;43.884;20.340;2024-03-29T12:58:01;742.90;1203.20
54796;DHT22;40693;43.884;20.340;2024-03-29T13:00:29;742.60;1177.60
54796;DHT22;40693;43.884;20.340;2024-03-29T13:02:54;717.60;1152.00
54796;DHT22;40693;43.884;20.340;2024-03-29T13:05:20;717.70;1152.00
54796;DHT22;40693;43.884;20.340;2024-03-29T13:07:46;717.70;1177.60
54796;DHT22;40693;43.884;20.340;2024-03-29T13:10:12;717.70;1203.20
54796;DHT22;40693;43.884;20.340;2024-03-29T13:12:45;717.70;1152.00
54796;DHT22;40693;43.884;20.340;2024-03-29T13:15:19;742.40;1203.20
54796;DHT22;40693;43.884;20.340;2024-03-29T13:17:45;742.50;1203.20
54796;DHT22;40693;43.884;20.340;2024-03-29T13:20:12;742.50;1203.20
54796;DHT22;40693;43.884;20.340;2024-03-29T13:22:38;742.50;1203.20
54796;DHT22;40693;43.884;20.340;2024-03-29T13:25:04;717.70;1177.60
54796;DHT22;40693;43.884;20.340;2024-03-29T13:27:30;717.60;1177.60
54796;DHT22;40693;43.884;20.340;2024-03-29T13:29:56;717.40;1203.20
54796;DHT22;40693;43.884;20.340;2024-03-29T13:32:22;717.40;1203.20
54796;DHT22;40693;43.884;20.340;2024-03-29T13:34:47;717.40;1254.40
54796;DHT22;40693;43.884;20.340;2024-03-29T13:37:13;717.40;1203.20
54796;DHT22;40693;43.884;20.340;2024-03-29T13:39:39;717.40;1254.40
54796;DHT22;40693;43.884;20.340;2024-03-29T13:42:04;717.60;1203.20
54796;DHT22;40693;43.884;20.340;2024-03-29T13:44:30;717.70;1228.80
54796;DHT22;40693;43.884;20.340;2024-03-29T13:46:57;717.70;1203.20
54796;DHT22;40693;43.884;20.340;2024-03-29T13:49:28;717.70;1203.20
54796;DHT22;40693;43.884;20.340;2024-03-29T13:51:54;717.60;1203.20
54796;DHT22;40693;43.884;20.340;2024-03-29T13:54:20;717.40;1228.80
54796;DHT22;40693;43.884;20.340;2024-03-29T13:56:45;717.50;1177.60
54796;DHT22;40693;43.884;20.340;2024-03-29T13:59:11;717.40;1228.80
54796;DHT22;40693;43.884;20.340;2024-03-29T14:01:37;717.30;1203.20
54796;DHT22;40693;43.884;20.340;2024-03-29T14:04:02;717.10;1203.20
54796;DHT22;40693;43.884;20.340;2024-03-29T14:06:28;717.00;1203.20
54796;DHT22;40693;43.884;20.340;2024-03-29T14:08:54;691.90;1228.80
54796;DHT22;40693;43.884;20.340;2024-03-29T14:11:20;716.90;1254.40
54796;DHT22;40693;43.884;20.340;2024-03-29T14:13:45;716.90;1228.80
54796;DHT22;40693;43.884;20.340;2024-03-29T14:16:14;716.90;1254.40
54796;DHT22;40693;43.884;20.340;2024-03-29T14:18:40;716.80;1228.80
54796;DHT22;40693;43.884;20.340;2024-03-29T14:21:06;716.80;1280.00
54796;DHT22;40693;43.884;20.340;2024-03-29T14:23:32;716.80;1254.40
54796;DHT22;40693;43.884;20.340;2024-03-29T14:25:57;716.80;1254.40
54796;DHT22;40693;43.884;20.340;2024-03-29T14:28:23;692.10;1203.20
54796;DHT22;40693;43.884;20.340;2024-03-29T14:30:49;692.10;1254.40
54796;DHT22;40693;43.884;20.340;2024-03-29T14:33:15;692.00;1254.40
54796;DHT22;40693;43.884;20.340;2024-03-29T14:35:41;692.10;1228.80
54796;DHT22;40693;43.884;20.340;2024-03-29T14:38:06;716.80;1280.00
54796;DHT22;40693;43.884;20.340;2024-03-29T14:40:32;692.10;1228.80
54796;DHT22;40693;43.884;20.340;2024-03-29T14:42:58;692.10;1228.80